createdAt,value
2023-02-25T00:00:52.980Z,0
2023-02-25T00:02:11.178Z,0
2023-02-25T00:02:53.329Z,0
2023-02-25T00:03:53.316Z,0
2023-02-25T00:04:52.845Z,0
2023-02-25T00:05:52.825Z,0
2023-02-25T00:06:52.785Z,0
2023-02-25T00:07:52.710Z,0
2023-02-25T00:08:52.698Z,0
2023-02-25T00:09:52.671Z,0
2023-02-25T00:10:52.646Z,0
2023-02-25T00:11:52.610Z,0
2023-02-25T00:12:52.598Z,0
2023-02-25T00:13:52.617Z,0
2023-02-25T00:14:52.499Z,0
2023-02-25T00:15:52.488Z,0
2023-02-25T00:16:52.758Z,0
2023-02-25T00:17:52.445Z,0
2023-02-25T00:18:52.330Z,0
2023-02-25T00:19:52.310Z,0
2023-02-25T00:20:52.281Z,0
2023-02-25T00:21:52.275Z,0
2023-02-25T00:22:52.241Z,0
2023-02-25T00:23:52.191Z,0
2023-02-25T00:24:52.130Z,0
2023-02-25T00:25:52.110Z,0
2023-02-25T00:26:52.160Z,0
2023-02-25T00:27:52.054Z,0
2023-02-25T00:28:52.016Z,0
2023-02-25T00:29:51.980Z,0
2023-02-25T00:30:52.753Z,0
2023-02-25T00:31:53.401Z,0
2023-02-25T00:32:52.300Z,0
2023-02-25T00:33:52.038Z,0
2023-02-25T00:34:51.806Z,0
2023-02-25T00:35:51.796Z,0
2023-02-25T00:36:52.039Z,0
2023-02-25T00:37:51.719Z,0
2023-02-25T00:38:51.657Z,0
2023-02-25T00:39:52.024Z,0
2023-02-25T00:40:51.613Z,0
2023-02-25T00:41:51.312Z,0
2023-02-25T00:42:51.550Z,0
2023-02-25T00:43:51.508Z,0
2023-02-25T00:44:51.476Z,0
2023-02-25T00:45:51.429Z,0
2023-02-25T00:46:51.809Z,0
2023-02-25T00:47:51.399Z,0
2023-02-25T00:48:51.082Z,0
2023-02-25T00:49:51.335Z,0
2023-02-25T00:50:51.235Z,0
2023-02-25T00:51:51.217Z,0
2023-02-25T00:52:51.173Z,0
2023-02-25T00:53:51.186Z,0
2023-02-25T00:54:51.312Z,0
2023-02-25T00:55:51.100Z,0
2023-02-25T00:56:51.067Z,0
2023-02-25T00:57:51.010Z,0
2023-02-25T00:58:51.012Z,0
2023-02-25T00:59:50.935Z,0
2023-02-25T01:01:01.118Z,0
2023-02-25T01:01:51.367Z,0
2023-02-25T01:02:51.060Z,0
2023-02-25T01:03:51.462Z,0
2023-02-25T01:04:51.387Z,0
2023-02-25T01:05:51.171Z,0
2023-02-25T01:06:50.800Z,0
2023-02-25T01:07:50.667Z,0
2023-02-25T01:08:50.616Z,0
2023-02-25T01:09:50.695Z,0
2023-02-25T01:10:50.588Z,0
2023-02-25T01:11:50.534Z,0
2023-02-25T01:12:50.521Z,0
2023-02-25T01:13:50.784Z,0
2023-02-25T01:14:50.438Z,0
2023-02-25T01:15:50.629Z,0
2023-02-25T01:16:50.338Z,0
2023-02-25T01:17:50.391Z,0
2023-02-25T01:18:50.028Z,0
2023-02-25T01:19:50.060Z,0
2023-02-25T01:20:50.282Z,0
2023-02-25T01:21:50.047Z,0
2023-02-25T01:22:50.143Z,0
2023-02-25T01:23:50.096Z,0
2023-02-25T01:24:51.028Z,0
2023-02-25T01:25:50.102Z,0
2023-02-25T01:26:50.028Z,0
2023-02-25T01:27:49.989Z,0
2023-02-25T01:28:49.998Z,0
2023-02-25T01:29:49.969Z,0
2023-02-25T01:30:50.228Z,0
2023-02-25T01:31:52.399Z,0
2023-02-25T01:32:50.537Z,0
2023-02-25T01:33:49.979Z,0
2023-02-25T01:34:49.768Z,0
2023-02-25T01:35:49.484Z,0
2023-02-25T01:36:49.429Z,0
2023-02-25T01:37:49.686Z,0
2023-02-25T01:38:49.583Z,0
2023-02-25T01:39:49.550Z,0
2023-02-25T01:40:49.530Z,0
2023-02-25T01:41:49.505Z,0
2023-02-25T01:42:49.502Z,0
2023-02-25T01:43:49.441Z,0
2023-02-25T01:44:49.379Z,0
2023-02-25T01:45:49.343Z,0
2023-02-25T01:46:49.838Z,0
2023-02-25T01:47:49.322Z,0
2023-02-25T01:48:49.234Z,0
2023-02-25T01:49:49.243Z,0
2023-02-25T01:50:49.184Z,0
2023-02-25T01:51:49.155Z,0
2023-02-25T01:52:49.115Z,0
2023-02-25T01:53:49.111Z,0
2023-02-25T01:54:48.780Z,0
2023-02-25T01:55:49.002Z,0
2023-02-25T01:56:48.976Z,0
2023-02-25T01:57:48.959Z,0
2023-02-25T01:58:48.906Z,0
2023-02-25T01:59:48.897Z,0
2023-02-25T02:00:49.177Z,0
2023-02-25T02:01:48.781Z,0
2023-02-25T02:02:49.077Z,0
2023-02-25T02:03:48.716Z,0
2023-02-25T02:04:48.700Z,0
2023-02-25T02:05:48.680Z,0
2023-02-25T02:06:48.793Z,0
2023-02-25T02:07:48.624Z,0
2023-02-25T02:08:48.555Z,0
2023-02-25T02:09:48.604Z,0
2023-02-25T02:10:48.480Z,0
2023-02-25T02:11:48.461Z,0
2023-02-25T02:12:48.176Z,0
2023-02-25T02:13:48.430Z,0
2023-02-25T02:14:48.359Z,0
2023-02-25T02:15:48.447Z,0
2023-02-25T02:16:48.628Z,0
2023-02-25T02:17:48.239Z,0
2023-02-25T02:18:48.239Z,0
2023-02-25T02:19:48.183Z,0
2023-02-25T02:20:48.134Z,0
2023-02-25T02:21:48.132Z,0
2023-02-25T02:22:48.074Z,0
2023-02-25T02:23:48.222Z,0
2023-02-25T02:24:48.014Z,0
2023-02-25T02:25:48.010Z,0
2023-02-25T02:26:47.936Z,0
2023-02-25T02:27:47.905Z,0
2023-02-25T02:28:47.876Z,0
2023-02-25T02:29:47.889Z,0
2023-02-25T02:30:48.082Z,0
2023-02-25T02:31:48.296Z,0
2023-02-25T02:32:48.390Z,0
2023-02-25T02:33:47.692Z,0
2023-02-25T02:34:47.682Z,0
2023-02-25T02:35:47.617Z,0
2023-02-25T02:36:47.594Z,0
2023-02-25T02:37:47.548Z,0
2023-02-25T02:38:47.530Z,0
2023-02-25T02:39:47.505Z,0
2023-02-25T02:40:47.252Z,0
2023-02-25T02:41:47.466Z,0
2023-02-25T02:42:47.412Z,0
2023-02-25T02:43:47.132Z,0
2023-02-25T02:44:47.309Z,0
2023-02-25T02:45:47.649Z,0
2023-02-25T02:46:47.231Z,0
2023-02-25T02:47:47.228Z,0
2023-02-25T02:48:47.157Z,0
2023-02-25T02:49:47.128Z,0
2023-02-25T02:50:47.124Z,0
2023-02-25T02:51:47.074Z,0
2023-02-25T02:52:47.059Z,0
2023-02-25T02:53:46.998Z,0
2023-02-25T02:54:46.976Z,0
2023-02-25T02:55:46.981Z,0
2023-02-25T02:56:46.887Z,0
2023-02-25T02:57:46.896Z,0
2023-02-25T02:58:46.862Z,0
2023-02-25T02:59:47.046Z,0
2023-02-25T03:00:47.127Z,0
2023-02-25T03:01:46.745Z,0
2023-02-25T03:02:46.674Z,0
2023-02-25T03:03:47.269Z,0
2023-02-25T03:04:46.595Z,0
2023-02-25T03:05:46.565Z,0
2023-02-25T03:06:46.563Z,0
2023-02-25T03:07:46.504Z,0
2023-02-25T03:08:46.464Z,0
2023-02-25T03:09:46.421Z,0
2023-02-25T03:10:46.419Z,0
2023-02-25T03:11:46.412Z,0
2023-02-25T03:12:46.385Z,0
2023-02-25T03:13:46.349Z,0
2023-02-25T03:14:46.239Z,0
2023-02-25T03:15:46.299Z,0
2023-02-25T03:16:46.575Z,0
2023-02-25T03:17:46.168Z,0
2023-02-25T03:18:48.593Z,0
2023-02-25T03:19:46.094Z,0
2023-02-25T03:20:46.060Z,0
2023-02-25T03:21:46.024Z,0
2023-02-25T03:22:46.045Z,0
2023-02-25T03:23:45.951Z,0
2023-02-25T03:24:45.921Z,0
2023-02-25T03:25:45.867Z,0
2023-02-25T03:26:45.849Z,0
2023-02-25T03:27:45.900Z,0
2023-02-25T03:28:45.763Z,0
2023-02-25T03:29:45.794Z,0
2023-02-25T03:30:46.177Z,0
2023-02-25T03:31:46.315Z,0
2023-02-25T03:32:47.433Z,0
2023-02-25T03:33:45.739Z,0
2023-02-25T03:34:45.583Z,0
2023-02-25T03:35:45.288Z,0
2023-02-25T03:36:45.595Z,0
2023-02-25T03:37:45.485Z,0
2023-02-25T03:38:45.468Z,0
2023-02-25T03:39:45.404Z,0
2023-02-25T03:40:45.353Z,0
2023-02-25T03:41:45.330Z,0
2023-02-25T03:42:45.311Z,0
2023-02-25T03:43:45.305Z,0
2023-02-25T03:44:45.363Z,0
2023-02-25T03:45:45.485Z,0
2023-02-25T03:46:45.167Z,0
2023-02-25T03:47:45.172Z,0
2023-02-25T03:48:45.106Z,0
2023-02-25T03:49:45.131Z,0
2023-02-25T03:50:45.044Z,0
2023-02-25T03:51:45.113Z,0
2023-02-25T03:52:44.949Z,0
2023-02-25T03:53:45.044Z,0
2023-02-25T03:54:44.894Z,0
2023-02-25T03:55:44.832Z,0
2023-02-25T03:56:44.806Z,0
2023-02-25T03:57:44.765Z,0
2023-02-25T03:58:44.730Z,0
2023-02-25T03:59:44.884Z,0
2023-02-25T04:00:44.722Z,0
2023-02-25T04:01:44.676Z,0
2023-02-25T04:02:45.013Z,0
2023-02-25T04:03:44.619Z,0
2023-02-25T04:04:44.862Z,0
2023-02-25T04:05:44.519Z,0
2023-02-25T04:06:44.473Z,0
2023-02-25T04:07:44.409Z,0
2023-02-25T04:08:44.379Z,0
2023-02-25T04:09:44.386Z,0
2023-02-25T04:10:44.411Z,0
2023-02-25T04:11:44.035Z,0
2023-02-25T04:12:44.369Z,0
2023-02-25T04:13:44.216Z,0
2023-02-25T04:14:44.182Z,0
2023-02-25T04:15:44.554Z,0
2023-02-25T04:16:44.124Z,0
2023-02-25T04:17:44.154Z,0
2023-02-25T04:18:44.056Z,0
2023-02-25T04:19:43.992Z,0
2023-02-25T04:20:43.791Z,0
2023-02-25T04:21:43.990Z,0
2023-02-25T04:22:44.187Z,0
2023-02-25T04:23:43.983Z,0
2023-02-25T04:24:43.841Z,0
2023-02-25T04:25:43.802Z,0
2023-02-25T04:26:43.832Z,0
2023-02-25T04:27:43.772Z,0
2023-02-25T04:28:43.844Z,0
2023-02-25T04:29:43.712Z,0
2023-02-25T04:30:44.310Z,0
2023-02-25T04:31:44.713Z,0
2023-02-25T04:32:43.897Z,0
2023-02-25T04:33:43.564Z,0
2023-02-25T04:34:43.511Z,0
2023-02-25T04:35:43.477Z,0
2023-02-25T04:36:43.429Z,0
2023-02-25T04:37:43.428Z,0
2023-02-25T04:38:43.349Z,0
2023-02-25T04:39:43.331Z,0
2023-02-25T04:40:43.278Z,0
2023-02-25T04:41:43.282Z,0
2023-02-25T04:42:43.267Z,0
2023-02-25T04:43:43.202Z,0
2023-02-25T04:44:43.132Z,0
2023-02-25T04:45:43.423Z,0
2023-02-25T04:46:43.539Z,0
2023-02-25T04:47:43.135Z,0
2023-02-25T04:48:43.001Z,0
2023-02-25T04:49:43.019Z,0
2023-02-25T04:50:42.922Z,0
2023-02-25T04:51:42.907Z,0
2023-02-25T04:52:42.904Z,0
2023-02-25T04:53:42.918Z,0
2023-02-25T04:54:42.799Z,0
2023-02-25T04:55:42.763Z,0
2023-02-25T04:56:42.752Z,0
2023-02-25T04:57:42.788Z,0
2023-02-25T04:58:42.716Z,0
2023-02-25T04:59:42.621Z,0
2023-02-25T05:00:42.596Z,0
2023-02-25T05:01:42.846Z,0
2023-02-25T05:02:42.527Z,0
2023-02-25T05:03:42.267Z,0
2023-02-25T05:04:42.956Z,0
2023-02-25T05:05:42.469Z,0
2023-02-25T05:06:42.382Z,0
2023-02-25T05:07:42.338Z,0
2023-02-25T05:08:42.317Z,0
2023-02-25T05:09:42.297Z,0
2023-02-25T05:10:42.305Z,0
2023-02-25T05:11:41.960Z,0
2023-02-25T05:12:42.299Z,0
2023-02-25T05:13:42.146Z,0
2023-02-25T05:14:42.621Z,0
2023-02-25T05:15:41.828Z,0
2023-02-25T05:16:42.252Z,0
2023-02-25T05:17:42.050Z,0
2023-02-25T05:18:41.995Z,0
2023-02-25T05:19:41.980Z,0
2023-02-25T05:20:42.397Z,0
2023-02-25T05:21:41.902Z,0
2023-02-25T05:22:41.872Z,0
2023-02-25T05:23:41.648Z,0
2023-02-25T05:24:41.774Z,0
2023-02-25T05:25:41.512Z,0
2023-02-25T05:26:41.744Z,0
2023-02-25T05:27:41.709Z,0
2023-02-25T05:28:41.672Z,0
2023-02-25T05:29:41.813Z,0
2023-02-25T05:30:41.685Z,0
2023-02-25T05:31:42.594Z,0
2023-02-25T05:32:42.626Z,0
2023-02-25T05:33:41.483Z,0
2023-02-25T05:34:41.435Z,0
2023-02-25T05:35:41.415Z,0
2023-02-25T05:36:41.354Z,0
2023-02-25T05:37:41.133Z,0
2023-02-25T05:38:41.285Z,0
2023-02-25T05:39:41.271Z,0
2023-02-25T05:40:41.230Z,0
2023-02-25T05:41:41.206Z,0
2023-02-25T05:42:41.141Z,0
2023-02-25T05:43:41.093Z,0
2023-02-25T05:44:41.057Z,0
2023-02-25T05:45:41.038Z,0
2023-02-25T05:46:41.390Z,0
2023-02-25T05:47:41.009Z,0
2023-02-25T05:48:40.940Z,0
2023-02-25T05:49:40.905Z,0
2023-02-25T05:50:40.888Z,0
2023-02-25T05:51:40.855Z,0
2023-02-25T05:52:40.818Z,0
2023-02-25T05:53:40.800Z,0
2023-02-25T05:54:40.720Z,0
2023-02-25T05:55:40.683Z,0
2023-02-25T05:56:41.905Z,0
2023-02-25T05:57:40.680Z,0
2023-02-25T05:58:40.600Z,0
2023-02-25T05:59:40.570Z,0
2023-02-25T06:00:40.281Z,0
2023-02-25T06:01:40.597Z,0
2023-02-25T06:02:40.473Z,0
2023-02-25T06:03:40.548Z,0
2023-02-25T06:04:40.391Z,0
2023-02-25T06:05:40.377Z,0
2023-02-25T06:06:40.322Z,0
2023-02-25T06:07:40.311Z,0
2023-02-25T06:08:40.237Z,0
2023-02-25T06:09:40.010Z,0
2023-02-25T06:10:40.161Z,0
2023-02-25T06:11:40.149Z,0
2023-02-25T06:12:40.086Z,0
2023-02-25T06:13:40.180Z,0
2023-02-25T06:14:40.161Z,0
2023-02-25T06:15:40.004Z,0
2023-02-25T06:16:40.525Z,0
2023-02-25T06:17:39.913Z,5
2023-02-25T06:18:39.922Z,5
2023-02-25T06:19:39.850Z,5
2023-02-25T06:20:39.888Z,5
2023-02-25T06:21:39.805Z,5
2023-02-25T06:22:39.740Z,5
2023-02-25T06:23:39.727Z,10
2023-02-25T06:24:39.691Z,10
2023-02-25T06:25:39.688Z,10
2023-02-25T06:26:39.390Z,10
2023-02-25T06:27:39.625Z,10
2023-02-25T06:28:39.555Z,10
2023-02-25T06:29:39.557Z,10
2023-02-25T06:30:39.942Z,10
2023-02-25T06:31:39.648Z,10
2023-02-25T06:32:40.349Z,10
2023-02-25T06:33:39.464Z,10
2023-02-25T06:34:39.376Z,10
2023-02-25T06:35:39.280Z,15
2023-02-25T06:36:39.276Z,15
2023-02-25T06:37:39.365Z,15
2023-02-25T06:38:39.209Z,15
2023-02-25T06:39:39.185Z,20
2023-02-25T06:40:39.133Z,20
2023-02-25T06:41:39.145Z,25
2023-02-25T06:42:39.050Z,25
2023-02-25T06:43:38.812Z,25
2023-02-25T06:44:39.024Z,25
2023-02-25T06:45:39.097Z,25
2023-02-25T06:46:39.191Z,25
2023-02-25T06:47:38.869Z,25
2023-02-25T06:48:38.856Z,25
2023-02-25T06:49:38.823Z,30
2023-02-25T06:50:38.826Z,30
2023-02-25T06:51:38.750Z,30
2023-02-25T06:52:38.728Z,25
2023-02-25T06:53:38.693Z,25
2023-02-25T06:54:38.402Z,25
2023-02-25T06:55:38.412Z,25
2023-02-25T06:56:38.588Z,25
2023-02-25T06:57:38.594Z,25
2023-02-25T06:58:38.517Z,30
2023-02-25T06:59:38.478Z,30
2023-02-25T07:00:38.457Z,25
2023-02-25T07:01:38.738Z,25
2023-02-25T07:02:38.456Z,30
2023-02-25T07:03:38.357Z,30
2023-02-25T07:04:38.671Z,35
2023-02-25T07:05:38.293Z,35
2023-02-25T07:06:38.248Z,35
2023-02-25T07:07:38.219Z,30
2023-02-25T07:08:38.183Z,30
2023-02-25T07:09:38.113Z,30
2023-02-25T07:10:38.236Z,30
2023-02-25T07:11:38.073Z,30
2023-02-25T07:12:38.012Z,30
2023-02-25T07:13:38.027Z,35
2023-02-25T07:14:37.940Z,40
2023-02-25T07:15:38.129Z,45
2023-02-25T07:16:37.887Z,50
2023-02-25T07:17:37.882Z,55
2023-02-25T07:18:37.828Z,60
2023-02-25T07:19:37.772Z,65
2023-02-25T07:20:37.862Z,65
2023-02-25T07:21:37.694Z,70
2023-02-25T07:22:37.721Z,80
2023-02-25T07:23:37.665Z,90
2023-02-25T07:24:37.598Z,90
2023-02-25T07:25:37.929Z,95
2023-02-25T07:26:37.548Z,95
2023-02-25T07:27:37.546Z,100
2023-02-25T07:28:37.463Z,105
2023-02-25T07:29:37.497Z,110
2023-02-25T07:30:37.407Z,125
2023-02-25T07:31:38.962Z,125
2023-02-25T07:32:38.408Z,125
2023-02-25T07:33:37.317Z,125
2023-02-25T07:34:37.021Z,120
2023-02-25T07:35:37.258Z,120
2023-02-25T07:36:37.215Z,110
2023-02-25T07:37:37.192Z,105
2023-02-25T07:38:37.194Z,105
2023-02-25T07:39:37.081Z,105
2023-02-25T07:40:37.061Z,95
2023-02-25T07:41:36.823Z,85
2023-02-25T07:42:37.050Z,95
2023-02-25T07:43:37.001Z,90
2023-02-25T07:44:36.940Z,100
2023-02-25T07:45:36.939Z,105
2023-02-25T07:46:37.232Z,110
2023-02-25T07:47:36.845Z,125
2023-02-25T07:48:36.531Z,145
2023-02-25T07:49:36.762Z,160
2023-02-25T07:50:36.519Z,180
2023-02-25T07:51:36.797Z,195
2023-02-25T07:52:36.651Z,200
2023-02-25T07:53:36.618Z,195
2023-02-25T07:54:36.645Z,175
2023-02-25T07:55:36.618Z,170
2023-02-25T07:56:36.344Z,180
2023-02-25T07:57:36.481Z,190
2023-02-25T07:58:36.451Z,190
2023-02-25T07:59:36.467Z,190
2023-02-25T08:00:36.418Z,205
2023-02-25T08:01:36.570Z,210
2023-02-25T08:02:36.697Z,225
2023-02-25T08:03:36.069Z,255
2023-02-25T08:04:36.663Z,255
2023-02-25T08:05:36.278Z,250
2023-02-25T08:06:36.167Z,260
2023-02-25T08:07:37.345Z,280
2023-02-25T08:08:35.850Z,290
2023-02-25T08:09:36.066Z,295
2023-02-25T08:10:36.054Z,275
2023-02-25T08:11:36.333Z,240
2023-02-25T08:12:35.966Z,220
2023-02-25T08:13:35.927Z,205
2023-02-25T08:14:35.916Z,200
2023-02-25T08:15:35.724Z,200
2023-02-25T08:16:35.605Z,215
2023-02-25T08:17:35.848Z,225
2023-02-25T08:18:35.794Z,225
2023-02-25T08:19:35.718Z,225
2023-02-25T08:20:35.738Z,230
2023-02-25T08:21:36.175Z,240
2023-02-25T08:22:35.638Z,275
2023-02-25T08:23:35.807Z,315
2023-02-25T08:24:35.367Z,325
2023-02-25T08:25:35.600Z,345
2023-02-25T08:26:35.549Z,390
2023-02-25T08:27:35.479Z,380
2023-02-25T08:28:40.090Z,350
2023-02-25T08:29:35.389Z,350
2023-02-25T08:30:35.671Z,370
2023-02-25T08:31:36.960Z,375
2023-02-25T08:32:36.458Z,375
2023-02-25T08:33:35.358Z,370
2023-02-25T08:34:35.034Z,370
2023-02-25T08:35:35.224Z,380
2023-02-25T08:36:34.981Z,385
2023-02-25T08:37:35.177Z,350
2023-02-25T08:38:35.116Z,360
2023-02-25T08:39:35.079Z,390
2023-02-25T08:40:35.127Z,410
2023-02-25T08:41:35.479Z,355
2023-02-25T08:42:35.040Z,335
2023-02-25T08:43:34.711Z,320
2023-02-25T08:44:34.901Z,315
2023-02-25T08:45:34.880Z,315
2023-02-25T08:46:35.436Z,280
2023-02-25T08:47:34.904Z,225
2023-02-25T08:48:34.794Z,200
2023-02-25T08:49:34.798Z,195
2023-02-25T08:50:34.751Z,200
2023-02-25T08:51:35.203Z,275
2023-02-25T08:52:34.640Z,300
2023-02-25T08:53:34.643Z,295
2023-02-25T08:54:34.694Z,305
2023-02-25T08:55:34.559Z,295
2023-02-25T08:56:34.500Z,270
2023-02-25T08:57:34.463Z,265
2023-02-25T08:58:34.541Z,285
2023-02-25T08:59:34.402Z,305
2023-02-25T09:00:34.734Z,320
2023-02-25T09:01:35.132Z,275
2023-02-25T09:02:34.098Z,245
2023-02-25T09:03:34.324Z,295
2023-02-25T09:04:34.323Z,335
2023-02-25T09:05:34.275Z,335
2023-02-25T09:06:34.180Z,345
2023-02-25T09:07:34.122Z,335
2023-02-25T09:08:34.099Z,295
2023-02-25T09:09:34.132Z,290
2023-02-25T09:10:52.657Z,255
2023-02-25T09:11:34.524Z,225
2023-02-25T09:12:34.390Z,165
2023-02-25T09:13:33.929Z,160
2023-02-25T09:14:33.950Z,120
2023-02-25T09:15:33.877Z,100
2023-02-25T09:16:34.206Z,105
2023-02-25T09:17:33.826Z,75
2023-02-25T09:18:33.952Z,50
2023-02-25T09:19:33.803Z,45
2023-02-25T09:20:33.709Z,40
2023-02-25T09:21:34.151Z,45
2023-02-25T09:22:33.661Z,60
2023-02-25T09:23:33.669Z,85
2023-02-25T09:24:33.574Z,145
2023-02-25T09:25:33.582Z,195
2023-02-25T09:26:33.580Z,215
2023-02-25T09:27:33.555Z,240
2023-02-25T09:28:34.105Z,270
2023-02-25T09:29:33.420Z,285
2023-02-25T09:30:33.530Z,315
2023-02-25T09:31:35.253Z,355
2023-02-25T09:32:34.217Z,405
2023-02-25T09:33:33.295Z,445
2023-02-25T09:34:33.255Z,490
2023-02-25T09:35:33.265Z,515
2023-02-25T09:36:33.168Z,525
2023-02-25T09:37:33.189Z,510
2023-02-25T09:38:33.097Z,480
2023-02-25T09:39:33.065Z,490
2023-02-25T09:40:33.078Z,520
2023-02-25T09:41:33.372Z,530
2023-02-25T09:42:32.973Z,510
2023-02-25T09:43:32.931Z,465
2023-02-25T09:44:32.904Z,440
2023-02-25T09:45:33.021Z,430
2023-02-25T09:46:32.742Z,455
2023-02-25T09:47:33.194Z,470
2023-02-25T09:48:32.817Z,470
2023-02-25T09:49:32.744Z,485
2023-02-25T09:50:32.693Z,485
2023-02-25T09:51:33.393Z,475
2023-02-25T09:52:32.430Z,455
2023-02-25T09:53:32.684Z,445
2023-02-25T09:54:32.668Z,435
2023-02-25T09:55:32.531Z,425
2023-02-25T09:56:32.541Z,420
2023-02-25T09:57:32.496Z,425
2023-02-25T09:58:32.222Z,430
2023-02-25T09:59:32.246Z,445
2023-02-25T10:00:31.900Z,470
2023-02-25T10:01:32.738Z,470
2023-02-25T10:02:33.261Z,445
2023-02-25T10:03:32.647Z,440
2023-02-25T10:04:32.262Z,440
2023-02-25T10:05:32.080Z,450
2023-02-25T10:06:32.173Z,475
2023-02-25T10:07:32.174Z,510
2023-02-25T10:08:32.114Z,560
2023-02-25T10:09:32.126Z,560
2023-02-25T10:10:32.190Z,525
2023-02-25T10:11:32.725Z,395
2023-02-25T10:12:31.976Z,220
2023-02-25T10:13:31.963Z,100
2023-02-25T10:14:31.664Z,65
2023-02-25T10:15:31.972Z,65
2023-02-25T10:16:31.921Z,95
2023-02-25T10:17:31.806Z,125
2023-02-25T10:18:31.831Z,145
2023-02-25T10:19:31.743Z,160
2023-02-25T10:20:31.710Z,155
2023-02-25T10:21:32.525Z,125
2023-02-25T10:22:31.736Z,115
2023-02-25T10:23:31.703Z,115
2023-02-25T10:24:31.590Z,140
2023-02-25T10:25:31.594Z,175
2023-02-25T10:26:31.560Z,220
2023-02-25T10:27:33.578Z,255
2023-02-25T10:28:31.465Z,275
2023-02-25T10:29:31.421Z,275
2023-02-25T10:30:31.890Z,260
2023-02-25T10:31:33.618Z,255
2023-02-25T10:32:32.096Z,255
2023-02-25T10:33:31.259Z,260
2023-02-25T10:34:31.281Z,265
2023-02-25T10:35:31.248Z,295
2023-02-25T10:36:31.159Z,305
2023-02-25T10:37:31.122Z,305
2023-02-25T10:38:31.085Z,250
2023-02-25T10:39:30.932Z,255
2023-02-25T10:40:31.068Z,235
2023-02-25T10:41:31.688Z,250
2023-02-25T10:42:30.970Z,245
2023-02-25T10:43:30.904Z,250
2023-02-25T10:44:30.718Z,255
2023-02-25T10:45:30.676Z,255
2023-02-25T10:46:31.167Z,255
2023-02-25T10:47:30.768Z,260
2023-02-25T10:48:30.883Z,260
2023-02-25T10:49:30.735Z,275
2023-02-25T10:50:51.246Z,255
2023-02-25T10:51:31.526Z,240
2023-02-25T10:52:30.608Z,240
2023-02-25T10:53:32.890Z,260
2023-02-25T10:54:30.541Z,275
2023-02-25T10:55:30.532Z,270
2023-02-25T10:56:30.493Z,265
2023-02-25T10:57:30.706Z,260
2023-02-25T10:58:30.427Z,265
2023-02-25T10:59:33.144Z,270
2023-02-25T11:00:30.351Z,290
2023-02-25T11:01:31.396Z,295
2023-02-25T11:02:31.013Z,300
2023-02-25T11:03:30.244Z,350
2023-02-25T11:04:30.200Z,365
2023-02-25T11:05:30.176Z,355
2023-02-25T11:06:32.704Z,475
2023-02-25T11:07:30.107Z,625
2023-02-25T11:08:30.098Z,410
2023-02-25T11:09:30.094Z,405
2023-02-25T11:10:30.008Z,485
2023-02-25T11:11:35.619Z,535
2023-02-25T11:12:30.149Z,465
2023-02-25T11:13:29.933Z,555
2023-02-25T11:14:29.610Z,480
2023-02-25T11:15:50.895Z,510
2023-02-25T11:16:30.359Z,535
2023-02-25T11:17:29.832Z,410
2023-02-25T11:18:29.568Z,465
2023-02-25T11:19:29.678Z,455
2023-02-25T11:20:29.556Z,580
2023-02-25T11:21:30.348Z,645
2023-02-25T11:22:29.594Z,650
2023-02-25T11:23:32.608Z,530
2023-02-25T11:24:29.533Z,510
2023-02-25T11:25:29.485Z,510
2023-02-25T11:26:29.444Z,460
2023-02-25T11:27:29.466Z,415
2023-02-25T11:28:29.462Z,380
2023-02-25T11:29:29.416Z,395
2023-02-25T11:30:29.374Z,425
2023-02-25T11:31:31.794Z,435
2023-02-25T11:32:30.131Z,355
2023-02-25T11:33:29.270Z,335
2023-02-25T11:34:29.261Z,355
2023-02-25T11:35:29.197Z,335
2023-02-25T11:36:30.255Z,295
2023-02-25T11:37:29.080Z,275
2023-02-25T11:38:29.106Z,275
2023-02-25T11:39:29.091Z,310
2023-02-25T11:40:29.131Z,335
2023-02-25T11:41:30.282Z,355
2023-02-25T11:42:28.959Z,350
2023-02-25T11:43:28.236Z,370
2023-02-25T11:44:28.888Z,415
2023-02-25T11:45:29.062Z,510
2023-02-25T11:46:30.534Z,595
2023-02-25T11:47:28.774Z,580
2023-02-25T11:48:28.763Z,580
2023-02-25T11:49:28.710Z,495
2023-02-25T11:50:28.159Z,475
2023-02-25T11:51:28.609Z,500
2023-02-25T11:52:28.581Z,505
2023-02-25T11:53:28.508Z,470
2023-02-25T11:54:28.569Z,405
2023-02-25T11:55:28.499Z,415
2023-02-25T11:56:29.492Z,425
2023-02-25T11:57:28.284Z,410
2023-02-25T11:58:28.427Z,405
2023-02-25T11:59:28.426Z,385
2023-02-25T12:00:28.387Z,420
2023-02-25T12:01:28.386Z,480
2023-02-25T12:02:28.372Z,480
2023-02-25T12:03:27.979Z,460
2023-02-25T12:04:28.199Z,440
2023-02-25T12:05:28.398Z,425
2023-02-25T12:06:29.134Z,445
2023-02-25T12:07:28.103Z,475
2023-02-25T12:08:28.091Z,490
2023-02-25T12:09:28.024Z,515
2023-02-25T12:10:28.200Z,515
2023-02-25T12:11:30.311Z,540
2023-02-25T12:12:27.925Z,540
2023-02-25T12:13:28.116Z,530
2023-02-25T12:14:27.889Z,525
2023-02-25T12:15:27.915Z,525
2023-02-25T12:16:28.899Z,455
2023-02-25T12:17:27.876Z,380
2023-02-25T12:18:27.746Z,335
2023-02-25T12:19:27.693Z,290
2023-02-25T12:20:27.455Z,300
2023-02-25T12:21:28.537Z,370
2023-02-25T12:22:27.606Z,475
2023-02-25T12:23:27.584Z,575
2023-02-25T12:24:27.590Z,585
2023-02-25T12:25:27.528Z,565
2023-02-25T12:26:27.518Z,520
2023-02-25T12:27:27.437Z,425
2023-02-25T12:28:27.433Z,435
2023-02-25T12:29:27.373Z,440
2023-02-25T12:30:27.364Z,400
2023-02-25T12:31:28.791Z,380
2023-02-25T12:32:27.731Z,400
2023-02-25T12:33:27.295Z,425
2023-02-25T12:34:29.961Z,435
2023-02-25T12:35:27.198Z,440
2023-02-25T12:36:27.147Z,390
2023-02-25T12:37:27.143Z,340
2023-02-25T12:38:27.277Z,290
2023-02-25T12:39:27.057Z,250
2023-02-25T12:40:27.032Z,230
2023-02-25T12:41:27.962Z,230
2023-02-25T12:42:26.971Z,245
2023-02-25T12:43:26.926Z,255
2023-02-25T12:44:28.112Z,230
2023-02-25T12:45:26.646Z,230
2023-02-25T12:46:26.816Z,240
2023-02-25T12:47:26.842Z,280
2023-02-25T12:48:26.757Z,325
2023-02-25T12:49:26.805Z,310
2023-02-25T12:50:26.690Z,340
2023-02-25T12:51:27.367Z,340
2023-02-25T12:52:27.073Z,330
2023-02-25T12:53:26.606Z,410
2023-02-25T12:54:26.572Z,410
2023-02-25T12:55:26.351Z,365
2023-02-25T12:56:26.483Z,400
2023-02-25T12:57:26.450Z,450
2023-02-25T12:58:26.468Z,490
2023-02-25T12:59:26.393Z,485
2023-02-25T13:00:26.347Z,485
2023-02-25T13:01:27.535Z,465
2023-02-25T13:02:26.078Z,475
2023-02-25T13:03:26.359Z,470
2023-02-25T13:04:26.274Z,430
2023-02-25T13:05:26.286Z,435
2023-02-25T13:06:26.180Z,405
2023-02-25T13:07:25.921Z,345
2023-02-25T13:08:26.106Z,340
2023-02-25T13:09:26.086Z,360
2023-02-25T13:10:26.037Z,360
2023-02-25T13:11:26.701Z,315
2023-02-25T13:12:25.962Z,330
2023-02-25T13:13:25.931Z,320
2023-02-25T13:14:25.968Z,305
2023-02-25T13:15:25.865Z,330
2023-02-25T13:16:25.982Z,340
2023-02-25T13:17:25.819Z,325
2023-02-25T13:18:25.793Z,305
2023-02-25T13:19:25.776Z,305
2023-02-25T13:20:25.797Z,300
2023-02-25T13:21:26.606Z,260
2023-02-25T13:22:25.666Z,245
2023-02-25T13:23:25.602Z,245
2023-02-25T13:24:25.351Z,255
2023-02-25T13:25:25.652Z,260
2023-02-25T13:26:25.326Z,285
2023-02-25T13:27:25.470Z,340
2023-02-25T13:28:25.459Z,350
2023-02-25T13:29:25.436Z,350
2023-02-25T13:30:25.525Z,360
2023-02-25T13:31:26.139Z,395
2023-02-25T13:32:26.128Z,420
2023-02-25T13:33:25.277Z,445
2023-02-25T13:34:25.299Z,465
2023-02-25T13:35:25.235Z,480
2023-02-25T13:36:25.171Z,445
2023-02-25T13:37:25.192Z,435
2023-02-25T13:38:25.121Z,350
2023-02-25T13:39:25.111Z,280
2023-02-25T13:40:27.224Z,275
2023-02-25T13:41:25.721Z,280
2023-02-25T13:42:24.992Z,290
2023-02-25T13:43:24.946Z,270
2023-02-25T13:44:24.985Z,295
2023-02-25T13:45:24.866Z,285
2023-02-25T13:46:25.034Z,295
2023-02-25T13:47:24.824Z,315
2023-02-25T13:48:24.867Z,355
2023-02-25T13:49:24.743Z,365
2023-02-25T13:50:24.709Z,345
2023-02-25T13:51:25.214Z,320
2023-02-25T13:52:24.659Z,300
2023-02-25T13:53:24.659Z,315
2023-02-25T13:54:24.579Z,350
2023-02-25T13:55:24.562Z,340
2023-02-25T13:56:24.288Z,315
2023-02-25T13:57:24.599Z,305
2023-02-25T13:58:24.440Z,320
2023-02-25T13:59:24.676Z,325
2023-02-25T14:00:24.384Z,330
2023-02-25T14:01:25.476Z,345
2023-02-25T14:02:24.573Z,345
2023-02-25T14:03:24.290Z,360
2023-02-25T14:04:24.260Z,335
2023-02-25T14:05:26.738Z,305
2023-02-25T14:06:24.208Z,255
2023-02-25T14:07:24.174Z,270
2023-02-25T14:08:24.128Z,275
2023-02-25T14:09:24.138Z,275
2023-02-25T14:10:23.806Z,260
2023-02-25T14:11:24.462Z,245
2023-02-25T14:12:23.981Z,245
2023-02-25T14:13:23.975Z,250
2023-02-25T14:14:23.933Z,265
2023-02-25T14:15:23.917Z,285